createdAt,value
2018-04-12T00:01:43.149Z,59.50
2018-04-12T00:04:11.383Z,59.40
2018-04-12T00:06:39.677Z,60.50
2018-04-12T00:09:07.961Z,58.80
2018-04-12T00:11:36.261Z,59.50
2018-04-12T00:14:04.539Z,58.80
2018-04-12T00:16:32.837Z,59.00
2018-04-12T00:19:01.081Z,57.50
2018-04-12T00:21:29.365Z,58.30
2018-04-12T00:23:57.640Z,58.10
2018-04-12T00:26:25.902Z,58.50
2018-04-12T00:28:54.144Z,59.30
2018-04-12T00:31:22.418Z,58.40
2018-04-12T00:33:50.661Z,58.40
2018-04-12T00:36:18.904Z,58.10
2018-04-12T00:38:47.241Z,57.60
2018-04-12T00:41:16.227Z,58.30
2018-04-12T00:43:45.285Z,58.10
2018-04-12T00:46:13.525Z,58.10
2018-04-12T00:48:41.784Z,57.60
2018-04-12T00:51:10.031Z,59.90
2018-04-12T00:53:50.059Z,58.10
2018-04-12T00:56:18.309Z,58.40
2018-04-12T00:58:46.582Z,58.10
2018-04-12T01:01:14.839Z,59.00
2018-04-12T01:03:43.844Z,59.50
2018-04-12T01:06:12.140Z,59.50
2018-04-12T01:08:40.432Z,60.60
2018-04-12T01:11:08.679Z,61.00
2018-04-12T01:13:36.932Z,61.40
2018-04-12T01:16:05.230Z,59.20
2018-04-12T01:18:34.227Z,59.70
2018-04-12T01:21:02.483Z,59.70
2018-04-12T01:23:31.521Z,58.60
2018-04-12T01:26:00.477Z,58.60
2018-04-12T01:28:29.468Z,59.00
2018-04-12T01:30:58.535Z,59.70
2018-04-12T01:33:26.809Z,59.70
2018-04-12T01:35:55.061Z,58.20
2018-04-12T01:38:23.302Z,60.60
2018-04-12T01:40:51.564Z,60.00
2018-04-12T01:43:20.568Z,58.50
2018-04-12T01:45:49.621Z,58.50
2018-04-12T01:48:17.902Z,58.40
2018-04-12T01:50:46.183Z,58.50
2018-04-12T01:53:14.442Z,58.10
2018-04-12T01:55:42.672Z,58.20
2018-04-12T01:58:11.696Z,58.70
2018-04-12T02:00:39.953Z,58.70
2018-04-12T02:03:09.012Z,58.40
2018-04-12T02:05:37.260Z,58.30
2018-04-12T02:08:05.519Z,58.40
2018-04-12T02:10:33.762Z,57.70
2018-04-12T02:13:02.801Z,58.70
2018-04-12T02:15:31.083Z,58.60
2018-04-12T02:17:59.381Z,57.50
2018-04-12T02:20:27.620Z,58.50
2018-04-12T02:22:55.907Z,57.60
2018-04-12T02:25:24.186Z,58.10
2018-04-12T02:27:52.510Z,57.70
2018-04-12T02:30:20.789Z,58.20
2018-04-12T02:32:49.048Z,58.30
2018-04-12T02:35:17.347Z,57.90
2018-04-12T02:37:45.634Z,57.70
2018-04-12T02:40:14.691Z,57.60
2018-04-12T02:42:42.939Z,57.50
2018-04-12T02:45:11.203Z,57.30
2018-04-12T02:47:39.443Z,57.30
2018-04-12T02:50:08.469Z,57.20
2018-04-12T02:52:36.698Z,57.10
2018-04-12T02:55:05.009Z,57.30
2018-04-12T02:57:34.045Z,56.50
2018-04-12T03:00:02.297Z,56.50
2018-04-12T03:02:30.588Z,56.90
2018-04-12T03:04:58.910Z,56.60
2018-04-12T03:07:27.202Z,57.20
2018-04-12T03:09:55.441Z,57.10
2018-04-12T03:12:23.733Z,57.90
2018-04-12T03:14:53.482Z,56.50
2018-04-12T03:17:21.745Z,56.40
2018-04-12T03:19:50.792Z,56.50
2018-04-12T03:22:19.159Z,56.50
2018-04-12T03:24:47.443Z,55.90
2018-04-12T03:27:15.692Z,56.00
2018-04-12T03:29:43.975Z,56.30
2018-04-12T03:32:12.227Z,55.80
2018-04-12T03:34:41.252Z,55.60
2018-04-12T03:37:09.497Z,55.50
2018-04-12T03:39:38.516Z,55.60
2018-04-12T03:42:06.826Z,55.60
2018-04-12T03:44:35.070Z,56.20
2018-04-12T03:47:03.366Z,55.70
2018-04-12T03:49:31.663Z,55.80
2018-04-12T03:51:59.896Z,56.30
2018-04-12T03:54:28.203Z,56.60
2018-04-12T03:56:56.483Z,56.10
2018-04-12T03:59:24.731Z,56.30
2018-04-12T04:01:52.978Z,55.80
2018-04-12T04:04:21.231Z,55.70
2018-04-12T04:06:49.496Z,55.90
2018-04-12T04:09:17.777Z,55.70
2018-04-12T04:11:46.018Z,56.40
2018-04-12T04:14:26.273Z,56.40
2018-04-12T04:17:06.575Z,56.30
2018-04-12T04:19:46.773Z,56.40
2018-04-12T04:22:15.828Z,55.90
2018-04-12T04:24:44.122Z,55.90
2018-04-12T04:27:13.299Z,56.20
2018-04-12T04:29:41.625Z,55.90
2018-04-12T04:32:10.673Z,56.50
2018-04-12T04:34:38.903Z,56.60
2018-04-12T04:37:07.969Z,56.30
2018-04-12T04:39:36.203Z,56.30
2018-04-12T04:42:04.510Z,56.30
2018-04-12T04:44:32.751Z,56.00
2018-04-12T04:47:01.018Z,55.60
2018-04-12T04:49:29.261Z,55.70
2018-04-12T04:51:57.524Z,55.90
2018-04-12T04:54:25.798Z,55.40
2018-04-12T04:56:54.114Z,55.70
2018-04-12T04:59:23.157Z,55.70
2018-04-12T05:01:51.424Z,55.70
2018-04-12T05:04:19.666Z,55.70
2018-04-12T05:06:47.987Z,56.30
2018-04-12T05:09:16.233Z,56.10
2018-04-12T05:11:44.513Z,56.40
2018-04-12T05:14:12.752Z,55.90
2018-04-12T05:16:41.765Z,56.60
2018-04-12T05:19:10.026Z,56.60
2018-04-12T05:21:39.061Z,57.00
2018-04-12T05:24:07.358Z,57.00
2018-04-12T05:26:35.605Z,56.80
2018-04-12T05:29:03.863Z,56.20
2018-04-12T05:31:32.910Z,56.10
2018-04-12T05:34:01.163Z,56.00
2018-04-12T05:36:29.466Z,56.80
2018-04-12T05:38:57.707Z,55.90
2018-04-12T05:41:25.952Z,56.10
2018-04-12T05:43:54.986Z,55.80
2018-04-12T05:46:23.268Z,55.70
2018-04-12T05:48:51.531Z,55.80
2018-04-12T05:51:19.808Z,56.40
2018-04-12T05:53:48.098Z,55.70
2018-04-12T05:56:16.343Z,55.70
2018-04-12T05:58:45.380Z,55.70
2018-04-12T06:01:13.680Z,55.70
2018-04-12T06:03:42.140Z,56.60
2018-04-12T06:06:10.392Z,56.30
2018-04-12T06:08:38.646Z,56.10
2018-04-12T06:11:07.716Z,55.90
2018-04-12T06:13:35.995Z,55.90
2018-04-12T06:16:04.249Z,56.90
2018-04-12T06:18:32.504Z,56.00
2018-04-12T06:21:01.048Z,55.60
2018-04-12T06:23:30.093Z,55.40
2018-04-12T06:25:58.391Z,55.40
2018-04-12T06:28:26.685Z,56.30
2018-04-12T06:30:54.907Z,55.50
2018-04-12T06:33:23.932Z,55.80
2018-04-12T06:35:52.173Z,55.70
2018-04-12T06:38:20.421Z,55.90
2018-04-12T06:40:49.432Z,55.70
2018-04-12T06:43:17.680Z,55.70
2018-04-12T06:45:47.472Z,56.00
2018-04-12T06:48:15.728Z,56.10
2018-04-12T06:50:43.979Z,55.60
2018-04-12T06:53:12.247Z,56.20
2018-04-12T06:55:41.248Z,56.00
2018-04-12T06:58:09.517Z,55.90
2018-04-12T07:00:38.563Z,55.80
2018-04-12T07:03:06.821Z,55.80
2018-04-12T07:05:35.104Z,55.60
2018-04-12T07:08:03.399Z,56.00
2018-04-12T07:10:31.675Z,56.30
2018-04-12T07:12:59.925Z,56.10
2018-04-12T07:15:28.179Z,56.20
2018-04-12T07:17:57.288Z,55.80
2018-04-12T07:20:25.533Z,55.60
2018-04-12T07:22:54.584Z,56.20
2018-04-12T07:25:22.831Z,55.60
2018-04-12T07:27:51.106Z,55.60
2018-04-12T07:30:19.391Z,55.70
2018-04-12T07:32:47.633Z,55.60
2018-04-12T07:35:16.655Z,55.80
2018-04-12T07:37:44.906Z,55.30
2018-04-12T07:40:13.932Z,54.90
2018-04-12T07:42:42.222Z,54.90
2018-04-12T07:45:10.511Z,54.70
2018-04-12T07:47:38.797Z,54.50
2018-04-12T07:50:07.092Z,54.80
2018-04-12T07:52:35.324Z,54.30
2018-04-12T07:55:03.619Z,54.00
2018-04-12T07:57:31.893Z,53.90
2018-04-12T08:00:00.127Z,54.00
2018-04-12T08:02:29.207Z,53.20
2018-04-12T08:04:58.262Z,53.10
2018-04-12T08:07:26.578Z,53.00
2018-04-12T08:09:56.382Z,53.20
2018-04-12T08:12:24.691Z,53.20
2018-04-12T08:14:53.734Z,52.60
2018-04-12T08:17:22.031Z,52.60
2018-04-12T08:19:50.308Z,53.40
2018-04-12T08:22:18.567Z,53.00
2018-04-12T08:24:46.856Z,52.50
2018-04-12T08:27:15.150Z,52.60
2018-04-12T08:29:44.913Z,52.80
2018-04-12T08:32:13.163Z,52.80
2018-04-12T08:34:41.452Z,52.80
2018-04-12T08:37:09.777Z,52.90
2018-04-12T08:39:38.016Z,52.50
2018-04-12T08:42:06.327Z,52.40
2018-04-12T08:44:34.622Z,52.50
2018-04-12T08:47:02.855Z,53.20
2018-04-12T08:49:31.154Z,53.30
2018-04-12T08:51:59.438Z,52.00
2018-04-12T08:54:27.739Z,51.00
2018-04-12T08:56:57.526Z,51.50
2018-04-12T08:59:25.785Z,51.50
2018-04-12T09:01:54.023Z,51.30
2018-04-12T09:04:23.044Z,51.50
2018-04-12T09:06:51.281Z,51.50
2018-04-12T09:09:20.326Z,51.50
2018-04-12T09:11:48.619Z,51.60
2018-04-12T09:14:16.897Z,51.60
2018-04-12T09:16:45.140Z,51.60
2018-04-12T09:19:13.376Z,48.30
2018-04-12T09:21:41.631Z,49.20
2018-04-12T09:24:09.913Z,49.20
2018-04-12T09:26:38.175Z,48.50
2018-04-12T09:29:06.414Z,49.10
2018-04-12T09:31:34.672Z,49.50
2018-04-12T09:34:03.745Z,47.80
2018-04-12T09:36:32.008Z,47.90
2018-04-12T09:39:00.253Z,47.40
2018-04-12T09:41:28.521Z,47.20
2018-04-12T09:43:56.767Z,46.40
2018-04-12T09:46:25.046Z,44.10
2018-04-12T09:48:54.112Z,46.00
2018-04-12T09:51:22.357Z,46.00
2018-04-12T09:53:50.613Z,42.70
2018-04-12T09:56:19.656Z,44.60
2018-04-12T09:58:47.949Z,44.60
2018-04-12T10:01:16.187Z,42.40
2018-04-12T10:03:44.487Z,41.90
2018-04-12T10:06:18.534Z,43.90
2018-04-12T10:08:52.447Z,42.40
2018-04-12T10:11:20.679Z,43.80
2018-04-12T10:13:49.038Z,43.40
2018-04-12T10:16:17.306Z,43.60
2018-04-12T10:18:45.579Z,44.50
2018-04-12T10:21:13.824Z,43.90
2018-04-12T10:23:42.440Z,39.00
2018-04-12T10:26:11.502Z,40.40
2018-04-12T10:28:39.730Z,40.30
2018-04-12T10:31:07.982Z,42.20
2018-04-12T10:33:36.233Z,44.20
2018-04-12T10:36:04.540Z,43.10
2018-04-12T10:38:33.578Z,41.20
2018-04-12T10:41:01.830Z,41.30
2018-04-12T10:43:30.061Z,39.40
2018-04-12T10:45:59.095Z,38.40
2018-04-12T10:48:27.341Z,37.80
2018-04-12T10:50:55.586Z,40.60
2018-04-12T10:53:23.877Z,38.20
2018-04-12T10:55:52.167Z,38.10
2018-04-12T10:58:20.458Z,40.30
2018-04-12T11:00:49.510Z,40.20
2018-04-12T11:03:17.799Z,40.20
2018-04-12T11:05:46.057Z,41.80
2018-04-12T11:08:14.307Z,41.70
2018-04-12T11:10:42.545Z,39.90
2018-04-12T11:13:11.564Z,40.70
2018-04-12T11:15:39.854Z,41.10
2018-04-12T11:18:08.145Z,39.50
2018-04-12T11:20:36.433Z,36.80
2018-04-12T11:23:04.711Z,39.50
2018-04-12T11:25:32.953Z,38.70
2018-04-12T11:28:01.213Z,38.00
2018-04-12T11:30:30.213Z,38.20
2018-04-12T11:32:59.240Z,36.40
2018-04-12T11:35:27.497Z,36.40
2018-04-12T11:37:55.771Z,38.40
2018-04-12T11:40:24.066Z,39.60
2018-04-12T11:42:52.356Z,36.70
2018-04-12T11:45:20.685Z,36.30
2018-04-12T11:47:49.686Z,36.60
2018-04-12T11:50:18.713Z,37.30
2018-04-12T11:52:46.958Z,36.70
2018-04-12T11:55:15.999Z,38.90
2018-04-12T11:57:44.219Z,38.90
2018-04-12T12:00:13.244Z,37.20
2018-04-12T12:02:41.495Z,37.20
2018-04-12T12:05:10.504Z,37.90
2018-04-12T12:07:38.781Z,38.00
2018-04-12T12:10:07.040Z,37.90
2018-04-12T12:12:36.107Z,36.70
2018-04-12T12:15:04.394Z,36.70
2018-04-12T12:17:34.201Z,39.70
2018-04-12T12:20:02.494Z,39.70
2018-04-12T12:22:30.734Z,41.00
2018-04-12T12:24:59.206Z,40.90
2018-04-12T12:27:27.499Z,38.60
2018-04-12T12:29:55.775Z,36.90
2018-04-12T12:32:24.039Z,37.10
2018-04-12T12:34:52.381Z,36.10
2018-04-12T12:37:21.395Z,39.10
2018-04-12T12:40:01.529Z,39.10
2018-04-12T12:42:36.393Z,35.10
2018-04-12T12:45:04.659Z,35.00
2018-04-12T12:47:32.961Z,35.00
2018-04-12T12:50:01.243Z,35.20
2018-04-12T12:52:41.150Z,37.20
2018-04-12T12:55:10.150Z,33.90
2018-04-12T12:57:50.059Z,33.90
2018-04-12T13:00:18.343Z,34.60
2018-04-12T13:02:52.543Z,35.60
2018-04-12T13:05:20.837Z,35.00
2018-04-12T13:07:49.103Z,35.40
2018-04-12T13:10:17.348Z,37.40
2018-04-12T13:12:45.660Z,37.80
2018-04-12T13:15:13.939Z,34.80
2018-04-12T13:17:42.187Z,35.80
2018-04-12T13:20:16.158Z,35.10
2018-04-12T13:22:45.232Z,37.10
2018-04-12T13:25:19.306Z,37.00
2018-04-12T13:27:47.681Z,37.60
2018-04-12T13:30:15.965Z,38.00
2018-04-12T13:32:44.251Z,38.60
2018-04-12T13:35:12.509Z,39.10
2018-04-12T13:37:40.759Z,39.60
2018-04-12T13:40:09.776Z,38.90
2018-04-12T13:42:43.867Z,38.90
2018-04-12T13:45:12.884Z,40.70
2018-04-12T13:47:47.077Z,40.70
2018-04-12T13:50:20.989Z,37.70
2018-04-12T13:52:49.275Z,39.60
2018-04-12T13:55:17.628Z,38.70
2018-04-12T13:57:45.887Z,39.50
2018-04-12T14:00:14.182Z,39.40
2018-04-12T14:02:43.182Z,40.20
2018-04-12T14:05:11.489Z,40.30
2018-04-12T14:07:39.786Z,40.60
2018-04-12T14:10:13.872Z,40.00
2018-04-12T14:12:42.156Z,38.60
2018-04-12T14:15:10.452Z,40.00
2018-04-12T14:17:38.733Z,38.30
2018-04-12T14:20:12.566Z,39.50
2018-04-12T14:22:48.252Z,38.40
2018-04-12T14:25:16.549Z,38.50
2018-04-12T14:27:44.827Z,37.10
2018-04-12T14:30:13.109Z,37.20
2018-04-12T14:32:41.369Z,39.20
2018-04-12T14:35:09.643Z,37.40
2018-04-12T14:37:37.890Z,39.80
2018-04-12T14:40:06.907Z,38.20
2018-04-12T14:42:47.191Z,38.20
2018-04-12T14:45:21.219Z,37.90
2018-04-12T14:47:49.548Z,37.80
2018-04-12T14:50:18.579Z,38.50
2018-04-12T14:52:46.826Z,37.90
2018-04-12T14:55:15.086Z,39.30
2018-04-12T14:57:50.004Z,38.90
2018-04-12T15:00:18.264Z,38.80
2018-04-12T15:02:46.509Z,39.60
2018-04-12T15:05:20.458Z,39.00
2018-04-12T15:07:48.692Z,39.70
2018-04-12T15:10:16.950Z,40.70
2018-04-12T15:12:45.953Z,41.00
2018-04-12T15:15:20.030Z,41.00
2018-04-12T15:17:48.327Z,41.10
2018-04-12T15:20:23.365Z,39.80
2018-04-12T15:22:52.377Z,41.00
2018-04-12T15:25:20.663Z,41.00
2018-04-12T15:27:49.061Z,39.40
2018-04-12T15:30:23.113Z,40.30
2018-04-12T15:32:51.352Z,40.70
2018-04-12T15:35:19.620Z,39.90
2018-04-12T15:37:47.894Z,40.20
2018-04-12T15:40:27.875Z,41.30
2018-04-12T15:42:56.127Z,40.60
2018-04-12T15:45:24.562Z,40.70
2018-04-12T15:47:53.713Z,40.60
2018-04-12T15:50:21.982Z,40.60
2018-04-12T15:52:56.195Z,41.20
2018-04-12T15:55:24.463Z,41.80
2018-04-12T15:57:52.698Z,41.50
2018-04-12T16:00:27.775Z,41.30
2018-04-12T16:03:01.800Z,41.30
2018-04-12T16:05:30.065Z,41.40
2018-04-12T16:08:10.001Z,39.90
2018-04-12T16:10:43.941Z,40.50
2018-04-12T16:13:12.186Z,41.20
2018-04-12T16:15:40.508Z,40.40
2018-04-12T16:18:14.511Z,41.50
2018-04-12T16:20:42.826Z,41.00
2018-04-12T16:23:11.103Z,41.20
2018-04-12T16:25:39.407Z,40.80
2018-04-12T16:28:07.719Z,39.50
2018-04-12T16:30:35.975Z,40.30
2018-04-12T16:33:04.233Z,40.30
2018-04-12T16:35:33.242Z,40.80
2018-04-12T16:38:01.525Z,40.70
2018-04-12T16:40:29.778Z,40.70
2018-04-12T16:42:58.811Z,39.80
2018-04-12T16:45:27.088Z,39.90
2018-04-12T16:47:55.350Z,39.80
2018-04-12T16:50:29.632Z,40.10
2018-04-12T16:52:58.646Z,40.50
2018-04-12T16:55:26.944Z,40.50
2018-04-12T16:57:55.242Z,40.50
2018-04-12T17:00:29.417Z,41.00
2018-04-12T17:02:57.709Z,41.50
2018-04-12T17:05:25.997Z,41.70
2018-04-12T17:07:54.293Z,41.70
2018-04-12T17:10:22.535Z,41.70
2018-04-12T17:12:56.823Z,41.70
2018-04-12T17:15:25.878Z,40.30
2018-04-12T17:17:54.185Z,40.20
2018-04-12T17:20:23.973Z,39.40
2018-04-12T17:22:52.237Z,39.40
2018-04-12T17:25:26.325Z,39.30
2018-04-12T17:27:54.800Z,39.70
2018-04-12T17:30:23.804Z,40.00
2018-04-12T17:32:57.936Z,40.00
2018-04-12T17:35:26.174Z,40.20
2018-04-12T17:37:55.234Z,40.60
2018-04-12T17:40:29.299Z,40.60
2018-04-12T17:42:57.585Z,40.70
2018-04-12T17:45:25.904Z,40.70
2018-04-12T17:47:55.020Z,40.90
2018-04-12T17:50:29.060Z,41.00
2018-04-12T17:52:57.317Z,40.90
2018-04-12T17:55:31.180Z,41.10
2018-04-12T17:57:59.473Z,41.30
2018-04-12T18:00:33.540Z,41.30
2018-04-12T18:03:02.604Z,41.40
2018-04-12T18:05:32.436Z,41.70
2018-04-12T18:08:01.459Z,41.70
2018-04-12T18:10:29.771Z,41.80
2018-04-12T18:12:58.006Z,41.90
2018-04-12T18:15:32.223Z,41.90
2018-04-12T18:18:00.526Z,42.00
2018-04-12T18:20:34.864Z,42.10
2018-04-12T18:23:09.165Z,42.00
2018-04-12T18:25:37.422Z,42.20
2018-04-12T18:28:05.700Z,42.10
2018-04-12T18:30:39.912Z,42.20
2018-04-12T18:33:08.174Z,42.40
2018-04-12T18:35:37.226Z,43.20
2018-04-12T18:38:11.377Z,43.20
2018-04-12T18:40:46.060Z,43.10
2018-04-12T18:43:14.382Z,43.00
2018-04-12T18:45:43.405Z,42.90
2018-04-12T18:48:11.729Z,42.90
2018-04-12T18:50:40.007Z,42.70
2018-04-12T18:53:08.261Z,43.00
2018-04-12T18:55:36.583Z,43.10
2018-04-12T18:58:05.615Z,43.30
2018-04-12T19:00:33.880Z,43.20
2018-04-12T19:03:07.875Z,42.90
2018-04-12T19:05:36.961Z,42.90
2018-04-12T19:08:05.997Z,43.60
2018-04-12T19:10:34.294Z,43.50
2018-04-12T19:13:08.548Z,43.60
2018-04-12T19:15:37.804Z,44.50
2018-04-12T19:18:17.986Z,43.90
2018-04-12T19:20:46.277Z,43.50
2018-04-12T19:23:21.218Z,44.20
2018-04-12T19:25:50.403Z,44.20
2018-04-12T19:28:24.396Z,44.20
2018-04-12T19:30:52.675Z,44.00
2018-04-12T19:33:20.960Z,43.90
2018-04-12T19:35:56.784Z,44.30
2018-04-12T19:38:25.809Z,44.00
2018-04-12T19:40:54.055Z,44.00
2018-04-12T19:43:22.332Z,44.40
2018-04-12T19:45:56.641Z,44.10
2018-04-12T19:48:24.932Z,44.20
2018-04-12T19:50:53.224Z,45.70
2018-04-12T19:53:27.370Z,45.20
2018-04-12T19:56:02.224Z,45.30
2018-04-12T19:58:36.486Z,45.30
2018-04-12T20:01:04.746Z,44.80
2018-04-12T20:03:33.011Z,44.50
2018-04-12T20:06:01.304Z,45.40
2018-04-12T20:08:29.564Z,45.60
2018-04-12T20:10:57.907Z,45.10
2018-04-12T20:13:26.140Z,44.90
2018-04-12T20:16:00.351Z,46.30
2018-04-12T20:18:34.258Z,46.40
2018-04-12T20:21:02.538Z,46.40
2018-04-12T20:23:30.797Z,46.40
2018-04-12T20:26:05.055Z,46.30
2018-04-12T20:28:34.800Z,47.10
2018-04-12T20:31:03.108Z,47.10
2018-04-12T20:33:31.448Z,46.70
2018-04-12T20:36:00.523Z,47.10
2018-04-12T20:38:30.272Z,47.60
2018-04-12T20:41:04.407Z,47.50
2018-04-12T20:43:38.265Z,47.90
2018-04-12T20:46:06.530Z,48.20
2018-04-12T20:48:42.012Z,48.00
2018-04-12T20:51:10.277Z,47.90
2018-04-12T20:53:39.315Z,49.20
2018-04-12T20:56:07.602Z,49.10
2018-04-12T20:58:42.464Z,49.30
2018-04-12T21:01:10.702Z,49.00
2018-04-12T21:03:38.957Z,48.70
2018-04-12T21:06:07.243Z,49.00
2018-04-12T21:08:41.296Z,48.10
2018-04-12T21:11:15.235Z,47.60
2018-04-12T21:13:45.004Z,48.90
2018-04-12T21:16:13.295Z,48.70
2018-04-12T21:18:41.555Z,48.20
2018-04-12T21:21:15.634Z,48.70
2018-04-12T21:23:44.604Z,47.60
2018-04-12T21:26:19.528Z,48.10
2018-04-12T21:28:55.223Z,47.30
2018-04-12T21:31:35.138Z,47.30
2018-04-12T21:34:04.164Z,48.50
2018-04-12T21:36:32.485Z,48.30
2018-04-12T21:39:00.780Z,49.40
2018-04-12T21:41:30.569Z,50.40
2018-04-12T21:44:04.627Z,50.40
2018-04-12T21:46:32.871Z,50.80
2018-04-12T21:49:01.930Z,49.20
2018-04-12T21:51:35.854Z,49.20
2018-04-12T21:54:04.139Z,48.50
2018-04-12T21:56:38.256Z,49.10
2018-04-12T21:59:06.554Z,50.30
2018-04-12T22:01:41.452Z,50.60
2018-04-12T22:04:15.611Z,50.60
2018-04-12T22:06:44.633Z,50.60
2018-04-12T22:09:12.929Z,50.50
2018-04-12T22:11:41.204Z,50.40
2018-04-12T22:14:09.458Z,51.70
2018-04-12T22:16:44.321Z,51.10
2018-04-12T22:19:12.568Z,50.10
2018-04-12T22:21:40.861Z,51.10
2018-04-12T22:24:09.119Z,51.10
2018-04-12T22:26:43.418Z,51.40
2018-04-12T22:29:18.453Z,52.30
2018-04-12T22:31:47.456Z,51.60
2018-04-12T22:34:16.483Z,51.60
2018-04-12T22:36:44.723Z,51.60
2018-04-12T22:39:13.800Z,51.10
2018-04-12T22:41:48.622Z,49.80
2018-04-12T22:44:16.943Z,49.80
2018-04-12T22:46:45.210Z,51.70
2018-04-12T22:49:20.106Z,51.70
2018-04-12T22:51:48.356Z,51.60
2018-04-12T22:54:22.665Z,52.80
2018-04-12T22:56:50.925Z,52.40
2018-04-12T22:59:19.184Z,53.30
2018-04-12T23:01:48.170Z,52.80
2018-04-12T23:04:22.840Z,53.10
2018-04-12T23:06:51.085Z,53.10
2018-04-12T23:09:20.098Z,52.70
2018-04-12T23:11:48.339Z,52.70
2018-04-12T23:14:23.176Z,54.20
2018-04-12T23:16:52.226Z,52.90
2018-04-12T23:19:20.475Z,52.80
2018-04-12T23:22:00.622Z,53.00
2018-04-12T23:24:29.672Z,52.50
2018-04-12T23:26:57.946Z,52.40
2018-04-12T23:29:32.239Z,51.50
2018-04-12T23:32:00.510Z,52.90
2018-04-12T23:34:40.763Z,52.10
2018-04-12T23:37:09.000Z,53.40
2018-04-12T23:39:38.015Z,52.60
2018-04-12T23:42:06.257Z,52.50
2018-04-12T23:44:34.546Z,51.00
2018-04-12T23:47:04.301Z,53.40
2018-04-12T23:49:38.346Z,53.40
2018-04-12T23:52:18.362Z,51.20
2018-04-12T23:54:46.610Z,52.60
2018-04-12T23:57:21.372Z,53.80
2018-04-12T23:59:49.619Z,53.70
